Time;durP1;ratioP1;P1;durP2;ratioP2;P2;SDS_P1;SDS_P2;PMS_P1;PMS_P2;Temp;Humidity;BMP_temperature;BMP_pressure;BME280_temperature;BME280_humidity;BME280_pressure;Samples;Min_cycle;Max_cycle;Signal;HPM_P1;HPM_P2
2023/10/09 00:02:06;;;;;;;4.82;2.22;;;;;;;;;;5031932;28;20292;-82
2023/10/09 00:04:36;;;;;;;5.40;1.70;;;;;;;;;;5041208;28;20613;-82
2023/10/09 00:07:07;;;;;;;5.40;1.80;;;;;;;;;;5030792;28;20049;-83
2023/10/09 00:09:46;;;;;;;3.75;2.00;;;;;;;;;;5029226;28;20415;-81
2023/10/09 00:12:16;;;;;;;3.38;1.63;;;;;;;;;;5029572;28;20655;-83
2023/10/09 00:14:48;;;;;;;4.78;1.85;;;;;;;;;;5006726;28;20478;-83
2023/10/09 00:19:47;;;;;;;4.78;2.08;;;;;;;;;;5039109;28;20071;-83
2023/10/09 00:22:26;;;;;;;6.53;1.88;;;;;;;;;;5028220;28;20123;-83
2023/10/09 00:25:10;;;;;;;4.32;1.90;;;;;;;;;;5025141;28;20045;-84
2023/10/09 00:27:41;;;;;;;4.57;1.80;;;;;;;;;;5016066;28;20540;-83
2023/10/09 00:30:11;;;;;;;4.53;2.10;;;;;;;;;;5023579;28;20188;-82
2023/10/09 00:32:51;;;;;;;2.38;1.38;;;;;;;;;;5008361;28;20044;-82
2023/10/09 00:35:46;;;;;;;3.53;1.70;;;;;;;;;;5000947;28;20112;-83
2023/10/09 00:40:47;;;;;;;3.97;1.98;;;;;;;;;;5021860;28;20060;-84
2023/10/09 00:43:19;;;;;;;2.67;1.80;;;;;;;;;;5025949;28;20050;-83
2023/10/09 00:45:46;;;;;;;3.50;1.85;;;;;;;;;;5010600;28;20097;-82
2023/10/09 00:48:21;;;;;;;3.10;1.70;;;;;;;;;;5005609;28;20452;-83
2023/10/09 00:50:52;;;;;;;2.38;1.52;;;;;;;;;;5018176;28;20123;-82
2023/10/09 00:53:32;;;;;;;4.03;1.70;;;;;;;;;;5012364;28;20054;-83
2023/10/09 00:56:18;;;;;;;2.42;1.50;;;;;;;;;;5030198;28;20078;-83
2023/10/09 00:58:46;;;;;;;5.80;1.70;;;;;;;;;;5029784;28;20042;-82
2023/10/09 01:01:16;;;;;;;2.72;1.65;;;;;;;;;;5008169;28;20404;-83
2023/10/09 01:03:46;;;;;;;4.45;1.88;;;;;;;;;;5009735;28;20503;-83
2023/10/09 01:11:09;;;;;;;2.25;1.55;;;;;;;;;;5005685;28;20054;-82
2023/10/09 01:16:15;;;;;;;2.65;1.50;;;;;;;;;;5014335;28;21689;-81
2023/10/09 01:18:48;;;;;;;4.28;1.70;;;;;;;;;;5013361;28;20053;-82
2023/10/09 01:21:24;;;;;;;3.03;1.55;;;;;;;;;;5006549;28;20144;-83
2023/10/09 01:24:03;;;;;;;3.28;1.65;;;;;;;;;;5025291;28;20052;-82
2023/10/09 01:26:39;;;;;;;2.00;1.45;;;;;;;;;;5031711;28;20041;-84
2023/10/09 01:29:14;;;;;;;2.80;1.57;;;;;;;;;;5026004;28;20034;-81
2023/10/09 01:31:50;;;;;;;3.47;1.52;;;;;;;;;;5036163;28;20042;-84
2023/10/09 01:34:24;;;;;;;2.80;1.65;;;;;;;;;;5041084;28;21072;-82
2023/10/09 01:36:54;;;;;;;3.40;1.70;;;;;;;;;;5028960;28;20101;-83
2023/10/09 01:39:23;;;;;;;3.17;1.48;;;;;;;;;;5025230;28;20049;-84
2023/10/09 01:42:09;;;;;;;6.78;2.10;;;;;;;;;;5031281;28;20056;-82
2023/10/09 01:44:42;;;;;;;3.65;1.98;;;;;;;;;;5042162;28;20049;-82
2023/10/09 01:47:14;;;;;;;2.47;1.52;;;;;;;;;;5018226;28;20061;-81
2023/10/09 01:49:43;;;;;;;4.18;2.25;;;;;;;;;;5025843;28;20439;-81
2023/10/09 01:52:15;;;;;;;3.28;1.80;;;;;;;;;;5040615;28;20515;-82
2023/10/09 01:54:47;;;;;;;3.75;2.00;;;;;;;;;;5039983;28;21471;-82
2023/10/09 01:57:15;;;;;;;4.97;1.90;;;;;;;;;;5026524;28;21524;-82
2023/10/09 01:59:49;;;;;;;4.00;2.22;;;;;;;;;;5013090;28;21255;-82
2023/10/09 02:07:44;;;;;;;5.97;3.03;;;;;;;;;;5040009;28;20131;-83
2023/10/09 02:12:57;;;;;;;5.57;2.05;;;;;;;;;;5046047;28;20244;-84
2023/10/09 02:23:56;;;;;;;12.65;3.72;;;;;;;;;;5015215;28;20136;-84
2023/10/09 02:26:27;;;;;;;14.55;4.15;;;;;;;;;;5044816;28;20049;-85
2023/10/09 02:29:04;;;;;;;9.85;3.88;;;;;;;;;;5043320;28;20052;-84
2023/10/09 02:31:40;;;;;;;8.98;4.05;;;;;;;;;;5033324;28;20374;-83
2023/10/09 02:34:10;;;;;;;12.70;4.00;;;;;;;;;;5023655;28;20038;-83
2023/10/09 02:36:48;;;;;;;10.60;3.90;;;;;;;;;;5049105;28;20403;-84
2023/10/09 02:39:28;;;;;;;7.68;4.40;;;;;;;;;;5051723;28;20500;-83
2023/10/09 02:44:49;;;;;;;8.35;4.10;;;;;;;;;;5021908;28;20052;-83
2023/10/09 02:47:20;;;;;;;11.30;3.97;;;;;;;;;;5019637;28;20133;-83
2023/10/09 02:49:50;;;;;;;9.60;3.95;;;;;;;;;;5037804;28;20279;-83
2023/10/09 02:52:25;;;;;;;11.77;4.95;;;;;;;;;;5033882;28;20053;-83
2023/10/09 02:55:23;;;;;;;9.68;3.95;;;;;;;;;;5020109;28;20474;-84
2023/10/09 02:57:41;;;;;;;10.95;4.43;;;;;;;;;;5032804;28;20050;-83
2023/10/09 03:00:09;;;;;;;13.13;4.50;;;;;;;;;;5039479;28;20065;-82
2023/10/09 03:02:39;;;;;;;11.27;4.82;;;;;;;;;;5018321;28;20041;-83
2023/10/09 03:05:12;;;;;;;11.02;4.70;;;;;;;;;;5022588;28;20048;-84
2023/10/09 03:07:39;;;;;;;9.45;4.28;;;;;;;;;;5030381;28;20038;-82
2023/10/09 03:10:09;;;;;;;14.82;4.47;;;;;;;;;;5018150;28;20050;-84
2023/10/09 03:12:36;;;;;;;10.73;4.30;;;;;;;;;;5013925;28;20145;-84
2023/10/09 03:15:05;;;;;;;15.38;5.28;;;;;;;;;;5011308;28;20038;-84
2023/10/09 03:17:34;;;;;;;12.57;4.47;;;;;;;;;;5046272;28;20061;-83
2023/10/09 03:20:11;;;;;;;10.93;4.60;;;;;;;;;;5011739;28;20050;-82
2023/10/09 03:22:39;;;;;;;13.55;5.20;;;;;;;;;;5001122;28;20229;-83
2023/10/09 03:25:12;;;;;;;12.43;5.07;;;;;;;;;;5017655;28;20125;-83
2023/10/09 03:27:44;;;;;;;12.13;4.93;;;;;;;;;;5016699;28;20056;-82
2023/10/09 03:30:22;;;;;;;11.07;4.63;;;;;;;;;;5011294;28;20042;-83
2023/10/09 03:32:56;;;;;;;13.45;5.15;;;;;;;;;;5017326;28;20420;-83
2023/10/09 03:35:24;;;;;;;10.77;5.15;;;;;;;;;;5019932;28;20359;-83
2023/10/09 03:37:59;;;;;;;10.85;4.55;;;;;;;;;;5012707;28;20451;-82
2023/10/09 03:40:27;;;;;;;9.52;4.53;;;;;;;;;;5015967;28;20053;-82
2023/10/09 03:42:53;;;;;;;14.27;4.78;;;;;;;;;;5022567;28;20041;-82
2023/10/09 03:45:27;;;;;;;13.63;5.00;;;;;;;;;;5016796;28;20057;-82
2023/10/09 03:47:57;;;;;;;11.10;4.75;;;;;;;;;;5015450;28;20050;-83
2023/10/09 03:50:26;;;;;;;9.77;4.00;;;;;;;;;;5046418;28;20049;-84
2023/10/09 03:52:54;;;;;;;12.00;5.00;;;;;;;;;;5019515;28;20073;-82
2023/10/09 03:55:24;;;;;;;11.80;4.78;;;;;;;;;;5005193;28;20046;-81
2023/10/09 03:57:51;;;;;;;12.18;4.40;;;;;;;;;;5020454;28;20066;-82
2023/10/09 04:00:26;;;;;;;12.73;4.95;;;;;;;;;;5027790;28;20164;-82
2023/10/09 04:02:54;;;;;;;13.98;4.97;;;;;;;;;;5011171;28;20108;-82
2023/10/09 04:05:21;;;;;;;13.88;5.50;;;;;;;;;;5000830;28;20048;-81
2023/10/09 04:07:49;;;;;;;16.33;5.93;;;;;;;;;;5010563;28;20137;-81
2023/10/09 04:10:43;;;;;;;17.02;5.15;;;;;;;;;;5011536;28;20118;-80
2023/10/09 04:13:17;;;;;;;14.45;5.45;;;;;;;;;;5025880;28;20881;-82
2023/10/09 04:15:44;;;;;;;16.42;5.25;;;;;;;;;;5002493;28;20099;-82
2023/10/09 04:18:15;;;;;;;11.85;4.80;;;;;;;;;;5002568;28;20592;-82
2023/10/09 04:20:55;;;;;;;15.32;4.50;;;;;;;;;;5018160;28;20045;-80
2023/10/09 04:23:34;;;;;;;10.35;5.07;;;;;;;;;;5012639;28;20060;-80
2023/10/09 04:26:10;;;;;;;9.65;4.68;;;;;;;;;;4991840;28;20460;-80
2023/10/09 04:28:37;;;;;;;9.18;4.05;;;;;;;;;;5018534;28;20331;-81
2023/10/09 04:31:06;;;;;;;11.27;5.05;;;;;;;;;;5034917;28;20038;-79
2023/10/09 04:38:59;;;;;;;12.02;4.70;;;;;;;;;;5027999;28;20350;-81
2023/10/09 04:41:32;;;;;;;14.85;4.80;;;;;;;;;;5014321;28;20124;-78
2023/10/09 04:52:30;;;;;;;10.35;4.25;;;;;;;;;;5039998;28;21749;-83
2023/10/09 04:57:45;;;;;;;;;;;;;;;;;;5018164;28;20101;-81
2023/10/09 05:03:04;;;;;;;12.40;5.50;;;;;;;;;;5026687;28;20115;-82
2023/10/09 05:08:19;;;;;;;14.25;4.82;;;;;;;;;;5023435;28;21764;-83
2023/10/09 05:16:05;;;;;;;16.17;5.55;;;;;;;;;;5028096;28;20052;-79
2023/10/09 05:18:36;;;;;;;10.23;4.90;;;;;;;;;;5021573;28;20643;-80
2023/10/09 05:21:29;;;;;;;12.65;5.32;;;;;;;;;;5015621;28;20505;-81
2023/10/09 05:24:15;;;;;;;12.32;5.25;;;;;;;;;;5019812;28;20828;-80
2023/10/09 05:37:43;;;;;;;14.63;6.32;;;;;;;;;;5007589;28;20046;-83
2023/10/09 06:03:48;;;;;;;15.85;5.43;;;;;;;;;;5022500;28;20483;-79
2023/10/09 06:06:42;;;;;;;11.93;5.88;;;;;;;;;;5024961;28;20753;-79
2023/10/09 06:11:49;;;;;;;16.02;6.15;;;;;;;;;;5020303;28;21843;-81
2023/10/09 06:14:49;;;;;;;11.00;5.55;;;;;;;;;;5018005;28;20057;-80
2023/10/09 06:17:23;;;;;;;14.38;5.95;;;;;;;;;;5037074;28;20180;-80
2023/10/09 06:19:56;;;;;;;17.83;6.30;;;;;;;;;;5025973;28;20507;-81
2023/10/09 06:25:12;;;;;;;12.98;5.82;;;;;;;;;;5026076;28;20050;-79
2023/10/09 06:27:57;;;;;;;;;;;;;;;;;;;;;
2023/10/09 06:35:35;;;;;;;16.13;6.70;;;;;;;;;;5041024;28;20037;-80
2023/10/09 06:38:22;;;;;;;11.18;6.07;;;;;;;;;;5041130;28;20546;-78
2023/10/09 06:43:36;;;;;;;13.48;5.97;;;;;;;;;;5032788;28;20050;-80
2023/10/09 06:48:59;;;;;;;16.73;6.35;;;;;;;;;;5018429;28;20717;-80
2023/10/09 06:58:57;;;;;;;19.48;8.02;;;;;;;;;;5017797;28;20057;-82
2023/10/09 07:03:59;;;;;;;20.23;8.60;;;;;;;;;;5009923;28;20128;-81
2023/10/09 07:14:06;;;;;;;18.40;7.75;;;;;;;;;;5024474;28;20058;-83
2023/10/09 07:16:39;;;;;;;22.38;8.35;;;;;;;;;;5011968;28;20062;-80
2023/10/09 07:21:54;;;;;;;17.02;8.18;;;;;;;;;;5043571;28;20073;-80
2023/10/09 07:24:37;;;;;;;17.10;7.93;;;;;;;;;;5025572;28;20045;-81
2023/10/09 07:27:09;;;;;;;21.80;7.47;;;;;;;;;;5030726;28;20455;-81
2023/10/09 07:29:47;;;;;;;22.35;7.70;;;;;;;;;;5040350;28;20049;-82
2023/10/09 07:32:20;;;;;;;20.67;7.70;;;;;;;;;;5043626;28;20052;-82
2023/10/09 07:34:53;;;;;;;20.85;7.90;;;;;;;;;;5034926;28;20519;-82
2023/10/09 07:37:22;;;;;;;22.85;8.13;;;;;;;;;;5033178;28;20508;-82
2023/10/09 07:39:57;;;;;;;19.63;7.85;;;;;;;;;;5033825;28;20106;-81
2023/10/09 07:42:43;;;;;;;20.65;7.80;;;;;;;;;;5052453;28;20667;-81
2023/10/09 07:48:05;;;;;;;17.67;7.43;;;;;;;;;;4995236;28;20328;-82
2023/10/09 07:50:40;;;;;;;22.80;7.90;;;;;;;;;;5016127;28;20123;-82
2023/10/09 07:53:26;;;;;;;22.77;8.45;;;;;;;;;;5017432;28;20056;-82
2023/10/09 07:56:06;;;;;;;17.98;7.05;;;;;;;;;;5033530;28;20326;-80
2023/10/09 07:58:45;;;;;;;15.63;7.60;;;;;;;;;;5040735;28;20259;-82
2023/10/09 08:01:16;;;;;;;16.45;7.20;;;;;;;;;;5042307;28;20048;-81
2023/10/09 08:03:46;;;;;;;17.67;7.90;;;;;;;;;;5036176;28;20045;-82
2023/10/09 08:17:37;;;;;;;19.75;8.48;;;;;;;;;;5019483;28;20057;-83
2023/10/09 08:19:55;;;;;;;24.33;8.45;;;;;;;;;;5012996;28;20651;-83
2023/10/09 08:24:55;;;;;;;23.73;9.07;;;;;;;;;;5023979;28;20107;-82
2023/10/09 08:33:00;;;;;;;19.00;8.70;;;;;;;;;;5015307;28;20041;-84
2023/10/09 08:35:31;;;;;;;23.02;8.52;;;;;;;;;;5012056;28;20428;-83
2023/10/09 08:38:00;;;;;;;22.83;8.68;;;;;;;;;;5015739;28;20124;-82
2023/10/09 08:40:37;;;;;;;21.33;8.48;;;;;;;;;;5017894;28;20042;-83
2023/10/09 08:43:14;;;;;;;24.33;9.30;;;;;;;;;;5016882;28;20169;-83
2023/10/09 08:45:44;;;;;;;23.25;8.55;;;;;;;;;;5022059;28;20149;-81
2023/10/09 08:48:18;;;;;;;19.05;8.68;;;;;;;;;;5021381;28;20100;-81
2023/10/09 08:50:45;;;;;;;20.17;8.35;;;;;;;;;;5009893;28;20077;-82
2023/10/09 08:53:12;;;;;;;24.63;9.45;;;;;;;;;;5016622;28;20037;-80
2023/10/09 08:55:40;;;;;;;26.50;9.30;;;;;;;;;;5004745;28;20469;-82
2023/10/09 08:58:19;;;;;;;23.65;9.15;;;;;;;;;;5020041;28;20393;-80
2023/10/09 09:00:46;;;;;;;19.92;8.15;;;;;;;;;;5012174;28;20046;-83
2023/10/09 09:03:16;;;;;;;21.52;9.02;;;;;;;;;;5016365;28;20393;-80
2023/10/09 09:05:45;;;;;;;21.05;8.60;;;;;;;;;;5014670;28;20064;-82
2023/10/09 09:08:23;;;;;;;20.92;8.82;;;;;;;;;;5017463;28;20049;-79
2023/10/09 09:10:58;;;;;;;16.98;8.10;;;;;;;;;;4998255;28;20069;-80
2023/10/09 09:13:25;;;;;;;17.65;8.45;;;;;;;;;;4984077;28;20045;-80
2023/10/09 09:15:55;;;;;;;17.98;8.00;;;;;;;;;;5006316;28;20049;-80
2023/10/09 09:18:22;;;;;;;22.15;8.93;;;;;;;;;;5031554;28;20103;-81
2023/10/09 09:20:53;;;;;;;18.48;8.80;;;;;;;;;;5010942;28;20049;-81
2023/10/09 09:23:23;;;;;;;22.98;8.98;;;;;;;;;;5005011;28;20074;-81
2023/10/09 09:25:59;;;;;;;19.42;8.65;;;;;;;;;;5021117;28;20046;-78
2023/10/09 09:28:26;;;;;;;19.83;8.23;;;;;;;;;;5025866;28;20116;-81
2023/10/09 09:30:56;;;;;;;22.50;9.20;;;;;;;;;;5005181;28;20099;-81
2023/10/09 09:33:27;;;;;;;18.80;8.68;;;;;;;;;;5014611;28;20049;-75
2023/10/09 09:36:02;;;;;;;19.95;8.25;;;;;;;;;;5031643;28;20055;-82
2023/10/09 09:38:41;;;;;;;14.52;7.75;;;;;;;;;;5025591;28;20108;-84
2023/10/09 09:41:08;;;;;;;19.35;8.68;;;;;;;;;;5016441;28;21701;-80
2023/10/09 09:43:36;;;;;;;22.80;7.65;;;;;;;;;;5008675;28;20046;-81
2023/10/09 09:46:07;;;;;;;17.48;7.35;;;;;;;;;;5038044;28;20046;-83
2023/10/09 09:48:39;;;;;;;16.55;7.88;;;;;;;;;;5063304;28;20149;-81
2023/10/09 09:51:08;;;;;;;20.23;7.88;;;;;;;;;;5047532;28;20037;-84
2023/10/09 09:53:35;;;;;;;15.60;7.75;;;;;;;;;;5048345;28;20026;-81
2023/10/09 09:56:03;;;;;;;17.70;7.57;;;;;;;;;;5047034;28;20033;-82
2023/10/09 09:58:41;;;;;;;21.00;7.30;;;;;;;;;;5009191;28;1108653;-84
2023/10/09 10:01:24;;;;;;;14.02;6.97;;;;;;;;;;5024921;28;20057;-83
2023/10/09 10:03:58;;;;;;;15.77;7.20;;;;;;;;;;5025184;28;20069;-82
2023/10/09 10:06:26;;;;;;;16.92;7.47;;;;;;;;;;5028654;28;20049;-83
2023/10/09 10:08:54;;;;;;;14.05;6.75;;;;;;;;;;5018121;28;20045;-83
2023/10/09 10:11:40;;;;;;;13.88;6.70;;;;;;;;;;5014097;28;20128;-81
2023/10/09 10:14:11;;;;;;;16.95;7.20;;;;;;;;;;5020559;28;20289;-83
2023/10/09 10:16:56;;;;;;;17.15;7.20;;;;;;;;;;5017813;28;20048;-82
2023/10/09 10:19:23;;;;;;;16.73;7.03;;;;;;;;;;5022694;28;20436;-81
2023/10/09 10:21:52;;;;;;;21.20;7.82;;;;;;;;;;5017511;28;20032;-82
2023/10/09 10:24:32;;;;;;;17.45;7.38;;;;;;;;;;5037766;28;20519;-83
2023/10/09 10:27:18;;;;;;;16.55;6.70;;;;;;;;;;5022019;28;20129;-80
2023/10/09 10:29:50;;;;;;;17.33;7.03;;;;;;;;;;5028566;28;20053;-80
2023/10/09 10:32:20;;;;;;;19.75;7.43;;;;;;;;;;4997748;28;20050;-81
2023/10/09 10:34:55;;;;;;;18.25;7.32;;;;;;;;;;5001228;28;20060;-82
2023/10/09 10:37:44;;;;;;;16.02;7.55;;;;;;;;;;5039273;28;20108;-81
2023/10/09 10:40:29;;;;;;;18.67;7.45;;;;;;;;;;5032303;28;20049;-84
2023/10/09 10:43:09;;;;;;;16.37;8.43;;;;;;;;;;5039094;28;20148;-82
2023/10/09 10:45:43;;;;;;;20.02;9.52;;;;;;;;;;5038441;28;20049;-83
2023/10/09 10:48:22;;;;;;;22.45;9.50;;;;;;;;;;5040499;28;20502;-84
2023/10/09 10:50:57;;;;;;;23.42;9.38;;;;;;;;;;5023953;28;20056;-85
2023/10/09 10:53:28;;;;;;;25.33;9.40;;;;;;;;;;5041238;28;20112;-86
2023/10/09 10:55:57;;;;;;;22.25;9.05;;;;;;;;;;5031871;28;20061;-83
2023/10/09 10:58:24;;;;;;;23.08;9.05;;;;;;;;;;5033718;28;20108;-84
2023/10/09 11:06:37;;;;;;;17.63;8.10;;;;;;;;;;4933862;28;20047;-85
2023/10/09 11:09:35;;;;;;;20.98;8.32;;;;;;;;;;4964067;28;20255;-84
2023/10/09 11:12:23;;;;;;;22.60;8.55;;;;;;;;;;5035540;28;20063;-83
2023/10/09 11:15:06;;;;;;;23.77;9.77;;;;;;;;;;5004131;28;20056;-86
2023/10/09 11:17:35;;;;;;;23.70;9.18;;;;;;;;;;5029275;28;20068;-85
2023/10/09 11:20:38;;;;;;;20.30;8.85;;;;;;;;;;5028583;28;20080;-85
2023/10/09 11:25:39;;;;;;;19.58;7.63;;;;;;;;;;5039641;28;20084;-85
2023/10/09 11:28:29;;;;;;;21.02;7.05;;;;;;;;;;5015532;28;20041;-84
2023/10/09 11:31:11;;;;;;;16.25;7.00;;;;;;;;;;5040569;28;20054;-84
2023/10/09 11:33:51;;;;;;;17.17;6.30;;;;;;;;;;5046979;28;20049;-84
2023/10/09 11:36:48;;;;;;;15.95;6.22;;;;;;;;;;5040968;28;20045;-84
2023/10/09 11:39:23;;;;;;;14.63;5.47;;;;;;;;;;5033276;28;20038;-85
2023/10/09 11:41:49;;;;;;;12.73;5.90;;;;;;;;;;5047668;28;20109;-86
2023/10/09 11:44:34;;;;;;;12.80;5.40;;;;;;;;;;5040776;28;20056;-87
2023/10/09 11:49:56;;;;;;;14.50;5.63;;;;;;;;;;5026748;28;21092;-84
2023/10/09 11:52:38;;;;;;;13.00;5.53;;;;;;;;;;5020939;28;20064;-84
2023/10/09 11:55:16;;;;;;;17.75;5.70;;;;;;;;;;5008920;28;20659;-82
2023/10/09 11:57:43;;;;;;;12.95;5.40;;;;;;;;;;5032251;28;20618;-82
2023/10/09 12:00:29;;;;;;;14.65;6.07;;;;;;;;;;5027057;28;20049;-83
2023/10/09 12:02:56;;;;;;;14.65;5.38;;;;;;;;;;5035715;28;20070;-81
2023/10/09 12:05:27;;;;;;;15.95;6.55;;;;;;;;;;5041005;28;20080;-81
2023/10/09 12:07:57;;;;;;;13.52;5.75;;;;;;;;;;5022016;28;20698;-82
2023/10/09 12:10:26;;;;;;;14.98;5.82;;;;;;;;;;5037377;28;20155;-84
2023/10/09 12:12:53;;;;;;;17.17;6.68;;;;;;;;;;5034798;28;20072;-86
2023/10/09 12:15:20;;;;;;;17.73;6.47;;;;;;;;;;5038581;28;20661;-86
2023/10/09 12:17:47;;;;;;;16.27;6.30;;;;;;;;;;5025261;28;20699;-84
2023/10/09 12:20:30;;;;;;;18.63;7.00;;;;;;;;;;5014626;28;20407;-83
2023/10/09 12:23:00;;;;;;;15.57;6.63;;;;;;;;;;5035483;28;20508;-84
2023/10/09 12:25:31;;;;;;;16.98;6.28;;;;;;;;;;5035719;28;20564;-82
2023/10/09 12:28:01;;;;;;;14.43;7.05;;;;;;;;;;5023506;28;20033;-83
2023/10/09 12:30:28;;;;;;;18.23;7.50;;;;;;;;;;5031982;28;20053;-81
2023/10/09 12:32:58;;;;;;;22.65;7.45;;;;;;;;;;5033206;28;20788;-83
2023/10/09 12:35:25;;;;;;;21.90;7.53;;;;;;;;;;5040988;28;20053;-82
2023/10/09 12:37:56;;;;;;;14.52;6.85;;;;;;;;;;5031825;28;20068;-82
2023/10/09 12:40:29;;;;;;;19.35;8.25;;;;;;;;;;5041432;28;20523;-83
2023/10/09 12:42:58;;;;;;;18.23;7.63;;;;;;;;;;5028829;28;20135;-85
2023/10/09 12:45:32;;;;;;;23.02;8.55;;;;;;;;;;5023882;28;20046;-83
2023/10/09 12:47:59;;;;;;;20.67;7.03;;;;;;;;;;5040282;28;20045;-84
2023/10/09 12:50:33;;;;;;;15.00;7.03;;;;;;;;;;5026870;28;20065;-84
2023/10/09 12:53:06;;;;;;;19.40;7.43;;;;;;;;;;5009049;28;20497;-83
2023/10/09 12:55:37;;;;;;;20.02;7.57;;;;;;;;;;5043962;28;20087;-82
2023/10/09 12:58:07;;;;;;;18.45;7.95;;;;;;;;;;5049440;28;20057;-82
2023/10/09 13:00:37;;;;;;;21.30;7.85;;;;;;;;;;5036705;28;20057;-83
2023/10/09 13:03:16;;;;;;;18.77;7.80;;;;;;;;;;5026478;28;20052;-84
2023/10/09 13:05:56;;;;;;;18.65;8.05;;;;;;;;;;5042193;28;20581;-82
2023/10/09 13:08:36;;;;;;;19.55;7.97;;;;;;;;;;5020664;28;20049;-80
2023/10/09 13:11:21;;;;;;;15.07;7.10;;;;;;;;;;5031802;28;21427;-84
2023/10/09 13:13:50;;;;;;;21.02;7.05;;;;;;;;;;5038416;28;20069;-80
2023/10/09 13:16:24;;;;;;;14.32;6.35;;;;;;;;;;5032481;28;20139;-82
2023/10/09 13:18:52;;;;;;;23.70;7.88;;;;;;;;;;5038693;28;20103;-85
2023/10/09 13:21:22;;;;;;;20.17;7.80;;;;;;;;;;5006804;28;20065;-84
2023/10/09 13:23:50;;;;;;;19.50;8.48;;;;;;;;;;5002413;28;20052;-83
2023/10/09 13:26:18;;;;;;;21.98;8.50;;;;;;;;;;5021897;28;20095;-83
2023/10/09 13:28:54;;;;;;;20.98;9.13;;;;;;;;;;5024917;28;20042;-83
2023/10/09 13:31:21;;;;;;;19.35;8.45;;;;;;;;;;5021340;28;20054;-84
2023/10/09 13:33:48;;;;;;;22.17;8.60;;;;;;;;;;5024136;28;20077;-84
2023/10/09 13:36:27;;;;;;;21.25;8.85;;;;;;;;;;5015068;28;20042;-86
2023/10/09 13:38:54;;;;;;;25.55;9.18;;;;;;;;;;5010548;28;20049;-84
2023/10/09 13:41:28;;;;;;;18.67;8.48;;;;;;;;;;5030709;28;20100;-86
2023/10/09 13:43:56;;;;;;;16.60;8.27;;;;;;;;;;5036324;28;20087;-86
2023/10/09 13:46:24;;;;;;;16.35;8.07;;;;;;;;;;5027524;28;20508;-87
2023/10/09 13:48:54;;;;;;;17.10;8.02;;;;;;;;;;5023634;28;20069;-83
2023/10/09 13:51:23;;;;;;;21.42;8.55;;;;;;;;;;5024077;28;20049;-85
2023/10/09 13:53:50;;;;;;;15.25;7.25;;;;;;;;;;5021489;28;20065;-85
2023/10/09 13:56:18;;;;;;;17.90;7.43;;;;;;;;;;5037912;28;20037;-86
2023/10/09 13:58:46;;;;;;;21.10;7.78;;;;;;;;;;5036889;28;20042;-86
2023/10/09 14:01:26;;;;;;;18.50;8.18;;;;;;;;;;5030913;28;20049;-87
2023/10/09 14:03:54;;;;;;;21.92;7.70;;;;;;;;;;5032857;28;20073;-86
2023/10/09 14:06:32;;;;;;;17.08;7.75;;;;;;;;;;5028029;28;20029;-87
2023/10/09 14:08:59;;;;;;;18.17;7.35;;;;;;;;;;5037718;28;20049;-84
2023/10/09 14:11:27;;;;;;;15.38;7.45;;;;;;;;;;5035944;28;20099;-83
2023/10/09 14:13:54;;;;;;;20.88;8.18;;;;;;;;;;5056006;28;20060;-85
2023/10/09 14:16:37;;;;;;;18.20;7.70;;;;;;;;;;5025764;28;20026;-81
2023/10/09 14:19:07;;;;;;;19.15;8.13;;;;;;;;;;5038986;28;20029;-83
2023/10/09 14:21:37;;;;;;;17.73;7.72;;;;;;;;;;5029808;28;20064;-84
2023/10/09 14:24:17;;;;;;;18.50;7.93;;;;;;;;;;5030155;28;20045;-84
2023/10/09 14:26:51;;;;;;;14.52;6.97;;;;;;;;;;5006653;28;20397;-83
2023/10/09 14:29:19;;;;;;;18.60;8.02;;;;;;;;;;5015457;28;20053;-86
2023/10/09 14:31:59;;;;;;;19.00;7.30;;;;;;;;;;5002072;28;20145;-87
2023/10/09 14:34:39;;;;;;;19.92;7.85;;;;;;;;;;5024650;28;20105;-86
2023/10/09 14:37:06;;;;;;;17.52;8.02;;;;;;;;;;5018908;28;20097;-84
2023/10/09 14:39:36;;;;;;;18.95;7.78;;;;;;;;;;5002425;28;20543;-83
2023/10/09 14:42:09;;;;;;;19.95;8.50;;;;;;;;;;5022287;28;20160;-85
2023/10/09 14:44:40;;;;;;;15.52;7.80;;;;;;;;;;5007252;28;20061;-86
2023/10/09 14:47:07;;;;;;;17.67;7.68;;;;;;;;;;5029492;28;20029;-85
2023/10/09 14:49:43;;;;;;;21.33;8.80;;;;;;;;;;5042707;28;20045;-85
2023/10/09 14:52:10;;;;;;;;;;;;;;;;;;5020387;28;20470;-85
2023/10/09 14:54:38;;;;;;;16.80;7.75;;;;;;;;;;5024207;28;19959;-85
2023/10/09 14:57:05;;;;;;;19.55;8.48;;;;;;;;;;5015448;28;20625;-86
2023/10/09 14:59:33;;;;;;;17.98;7.93;;;;;;;;;;5025821;28;20332;-85
2023/10/09 15:01:59;;;;;;;17.65;8.15;;;;;;;;;;5035809;28;20503;-84
2023/10/09 15:04:26;;;;;;;20.33;7.95;;;;;;;;;;5039491;28;20484;-85
2023/10/09 15:06:53;;;;;;;20.02;7.63;;;;;;;;;;5042501;28;20076;-86
2023/10/09 15:09:22;;;;;;;19.15;7.78;;;;;;;;;;4997003;28;20037;-85
2023/10/09 15:11:50;;;;;;;19.23;7.90;;;;;;;;;;5035294;28;20041;-84
2023/10/09 15:14:18;;;;;;;18.95;8.30;;;;;;;;;;5035872;28;20054;-85
2023/10/09 15:16:46;;;;;;;18.63;8.80;;;;;;;;;;5034066;28;20049;-84
2023/10/09 15:19:13;;;;;;;16.45;8.27;;;;;;;;;;5013915;28;20045;-84
2023/10/09 15:21:49;;;;;;;23.98;8.25;;;;;;;;;;5030966;28;20038;-84
2023/10/09 15:24:16;;;;;;;18.27;8.52;;;;;;;;;;5020982;28;20048;-86
2023/10/09 15:26:52;;;;;;;15.70;7.72;;;;;;;;;;5036557;28;20128;-83
2023/10/09 15:29:23;;;;;;;17.70;8.15;;;;;;;;;;5042394;28;20064;-83
2023/10/09 15:31:50;;;;;;;17.80;8.35;;;;;;;;;;5051133;28;20052;-81
2023/10/09 15:34:18;;;;;;;20.60;8.10;;;;;;;;;;5043422;28;20037;-82
2023/10/09 15:36:46;;;;;;;16.15;7.55;;;;;;;;;;5049602;28;20049;-82
2023/10/09 15:39:14;;;;;;;20.90;8.50;;;;;;;;;;5044794;28;20076;-83
2023/10/09 15:41:41;;;;;;;19.25;8.77;;;;;;;;;;5043549;28;20048;-82
2023/10/09 15:44:08;;;;;;;20.30;8.90;;;;;;;;;;5042075;28;20280;-83
2023/10/09 15:46:34;;;;;;;23.33;8.82;;;;;;;;;;5054141;28;20037;-81
2023/10/09 15:49:01;;;;;;;19.13;8.48;;;;;;;;;;5038656;28;20037;-83
2023/10/09 15:51:29;;;;;;;20.88;8.32;;;;;;;;;;5036627;28;20373;-84
2023/10/09 15:53:56;;;;;;;20.15;8.48;;;;;;;;;;5040109;28;20094;-83
2023/10/09 15:56:24;;;;;;;15.93;8.45;;;;;;;;;;5040845;28;20453;-85
2023/10/09 15:58:53;;;;;;;20.48;9.07;;;;;;;;;;5040286;28;20041;-84
2023/10/09 16:01:22;;;;;;;19.50;8.77;;;;;;;;;;5038645;28;20053;-83
2023/10/09 16:03:49;;;;;;;22.80;8.30;;;;;;;;;;5018590;28;20041;-85
2023/10/09 16:06:17;;;;;;;21.40;8.55;;;;;;;;;;5055045;28;20037;-86
2023/10/09 16:08:47;;;;;;;23.30;9.05;;;;;;;;;;5048933;28;20140;-84
2023/10/09 16:11:18;;;;;;;19.25;8.63;;;;;;;;;;5036453;28;20509;-85
2023/10/09 16:13:45;;;;;;;19.85;8.65;;;;;;;;;;5026553;28;20045;-85
2023/10/09 16:16:13;;;;;;;18.30;8.95;;;;;;;;;;5019806;28;20388;-86
2023/10/09 16:18:40;;;;;;;19.70;8.40;;;;;;;;;;5051028;28;20045;-86
2023/10/09 16:21:08;;;;;;;22.48;9.27;;;;;;;;;;5022028;28;20060;-88
2023/10/09 16:23:36;;;;;;;19.85;9.18;;;;;;;;;;5045002;28;20115;-86
2023/10/09 16:26:04;;;;;;;18.63;8.55;;;;;;;;;;5041420;28;20041;-86
2023/10/09 16:28:33;;;;;;;17.77;8.63;;;;;;;;;;5038921;28;20049;-86
2023/10/09 16:31:00;;;;;;;20.83;9.30;;;;;;;;;;5043808;28;20048;-83
2023/10/09 16:33:27;;;;;;;22.35;9.30;;;;;;;;;;5048503;28;20119;-84
2023/10/09 16:35:54;;;;;;;20.13;9.63;;;;;;;;;;5031419;28;20041;-84
2023/10/09 16:38:22;;;;;;;20.40;9.52;;;;;;;;;;5023548;28;20136;-85
2023/10/09 16:40:54;;;;;;;21.15;9.65;;;;;;;;;;5025601;28;20056;-84
2023/10/09 16:43:24;;;;;;;22.27;9.52;;;;;;;;;;5038291;28;20519;-86
2023/10/09 16:45:50;;;;;;;22.05;9.90;;;;;;;;;;5011316;28;20064;-85
2023/10/09 16:48:18;;;;;;;20.80;9.10;;;;;;;;;;5029904;28;20057;-82
2023/10/09 16:50:46;;;;;;;18.70;9.18;;;;;;;;;;5026890;28;20041;-82
2023/10/09 16:53:16;;;;;;;23.95;9.98;;;;;;;;;;5031255;28;20060;-86
2023/10/09 16:55:48;;;;;;;24.17;9.63;;;;;;;;;;5023196;28;20498;-83
2023/10/09 16:58:15;;;;;;;19.60;9.38;;;;;;;;;;5021394;28;20064;-84
2023/10/09 17:00:45;;;;;;;21.85;9.38;;;;;;;;;;5020811;28;20045;-86
2023/10/09 17:03:14;;;;;;;24.45;9.20;;;;;;;;;;5009430;28;20133;-86
2023/10/09 17:06:04;;;;;;;19.08;9.32;;;;;;;;;;5012529;28;20127;-86
2023/10/09 17:08:31;;;;;;;19.85;9.32;;;;;;;;;;5044656;28;20068;-85
2023/10/09 17:11:00;;;;;;;23.67;9.85;;;;;;;;;;5043808;28;20049;-84
2023/10/09 17:13:30;;;;;;;26.05;10.75;;;;;;;;;;5040650;28;20103;-85
2023/10/09 17:15:57;;;;;;;23.00;10.05;;;;;;;;;;5045886;28;20059;-82
2023/10/09 17:18:25;;;;;;;26.25;10.50;;;;;;;;;;5043023;28;20049;-85
2023/10/09 17:20:52;;;;;;;23.02;10.63;;;;;;;;;;5042814;28;20136;-82
2023/10/09 17:23:19;;;;;;;22.30;10.32;;;;;;;;;;5035973;28;20041;-81
2023/10/09 17:25:46;;;;;;;25.38;10.35;;;;;;;;;;5031888;28;20066;-82
2023/10/09 17:28:17;;;;;;;26.30;10.77;;;;;;;;;;5033809;28;21534;-82
2023/10/09 17:30:45;;;;;;;25.42;10.32;;;;;;;;;;5034909;28;20060;-84
2023/10/09 17:33:11;;;;;;;31.30;10.13;;;;;;;;;;5040924;28;20588;-84
2023/10/09 17:35:39;;;;;;;22.40;10.02;;;;;;;;;;5035486;28;20037;-83
2023/10/09 17:38:07;;;;;;;23.08;9.98;;;;;;;;;;5025870;28;20076;-83
2023/10/09 17:40:33;;;;;;;21.02;9.50;;;;;;;;;;5031328;28;20072;-81
2023/10/09 17:43:01;;;;;;;19.88;8.88;;;;;;;;;;5027330;28;20060;-82
2023/10/09 17:45:27;;;;;;;25.55;10.07;;;;;;;;;;5007764;28;20374;-83
2023/10/09 17:47:54;;;;;;;20.50;9.02;;;;;;;;;;5013748;28;20038;-81